Time;durP1;ratioP1;P1;durP2;ratioP2;P2;SDS_P1;SDS_P2;PMS_P1;PMS_P2;Temp;Humidity;BMP_temperature;BMP_pressure;BME280_temperature;BME280_humidity;BME280_pressure;Samples;Min_cycle;Max_cycle;Signal;HPM_P1;HPM_P2
2022/05/22 00:01:40;;;;;;;9.57;3.63;;;;;;;19.44;53.52;98936.50;5020518;28;20113;-77
2022/05/22 00:04:06;;;;;;;6.90;3.65;;;;;;;19.36;54.26;98939.34;5014712;28;20033;-78
2022/05/22 00:06:32;;;;;;;5.05;3.50;;;;;;;19.28;52.75;98936.94;5033421;28;20053;-78
2022/05/22 00:08:57;;;;;;;7.55;3.92;;;;;;;19.06;52.48;98919.97;5033409;28;20036;-78
2022/05/22 00:11:23;;;;;;;11.23;3.90;;;;;;;19.44;51.62;98919.50;5033473;28;20025;-78
2022/05/22 00:13:49;;;;;;;21.75;3.63;;;;;;;19.52;52.35;98932.44;5015725;28;20029;-77
2022/05/22 00:19:00;;;;;;;9.85;3.90;;;;;;;19.59;53.38;98912.56;5033105;28;20120;-78
2022/05/22 00:21:26;;;;;;;12.90;4.53;;;;;;;19.80;53.03;98910.88;5014281;28;20054;-77
2022/05/22 00:23:51;;;;;;;5.07;4.07;;;;;;;19.86;52.43;98916.91;5025632;28;20092;-78
2022/05/22 00:26:17;;;;;;;4.80;3.60;;;;;;;19.83;51.20;98914.91;4995779;28;20029;-76
2022/05/22 00:28:43;;;;;;;7.22;3.40;;;;;;;19.76;51.35;98916.53;5013364;28;20384;-78
2022/05/22 00:31:08;;;;;;;5.70;3.67;;;;;;;19.86;50.55;98917.75;5013346;28;20030;-78
2022/05/22 00:33:34;;;;;;;6.68;3.70;;;;;;;20.03;50.05;98910.41;4997836;28;20045;-77
2022/05/22 00:35:59;;;;;;;5.63;3.50;;;;;;;20.19;49.22;98903.41;5030745;28;20076;-78
2022/05/22 00:38:25;;;;;;;4.78;3.90;;;;;;;20.30;49.37;98900.50;5014963;28;20486;-78
2022/05/22 00:40:51;;;;;;;7.65;3.88;;;;;;;20.22;49.49;98902.56;5014832;28;20058;-78
2022/05/22 00:43:24;;;;;;;5.43;4.00;;;;;;;19.81;50.86;98911.69;5032848;28;20063;-78
2022/05/22 00:45:50;;;;;;;4.18;3.75;;;;;;;20.01;50.31;98912.81;5032577;28;20021;-78
2022/05/22 00:48:16;;;;;;;10.68;3.80;;;;;;;19.92;51.19;98892.59;5030568;28;20033;-78
2022/05/22 00:50:42;;;;;;;4.53;3.80;;;;;;;19.78;51.88;98885.72;5032823;28;20104;-78
2022/05/22 00:53:08;;;;;;;15.38;4.50;;;;;;;20.05;51.42;98898.63;5032404;28;20104;-78
2022/05/22 00:55:34;;;;;;;5.50;3.63;;;;;;;19.91;51.87;98888.13;5015043;28;20105;-77
2022/05/22 00:58:04;;;;;;;5.07;3.63;;;;;;;20.02;51.54;98894.56;5014902;28;20045;-77
2022/05/22 01:00:32;;;;;;;;;;;;;;;19.92;52.07;98895.41;5033195;28;20036;-77
2022/05/22 01:05:45;;;;;;;8.05;5.20;;;;;;;19.75;53.08;98886.56;5012722;28;20052;-78
2022/05/22 01:08:10;;;;;;;6.55;4.18;;;;;;;19.90;52.66;98895.00;5012632;28;20029;-78
2022/05/22 01:10:41;;;;;;;6.15;4.13;;;;;;;19.97;52.48;98891.34;5012222;28;20549;-78
2022/05/22 01:13:08;;;;;;;7.30;4.47;;;;;;;19.03;55.74;98892.44;5032373;28;20068;-78
2022/05/22 01:15:34;;;;;;;7.75;4.90;;;;;;;19.66;53.66;98893.91;5014550;28;20437;-78
2022/05/22 01:17:59;;;;;;;10.23;4.78;;;;;;;19.12;55.59;98892.84;5013058;28;20030;-78
2022/05/22 01:20:25;;;;;;;5.95;4.05;;;;;;;19.11;55.60;98887.56;5012441;28;20022;-79
2022/05/22 01:22:50;;;;;;;8.05;4.30;;;;;;;19.20;55.15;98882.28;5012505;28;20029;-78
2022/05/22 01:25:16;;;;;;;15.05;4.40;;;;;;;18.76;56.03;98884.34;5028509;28;20022;-78
2022/05/22 01:27:42;;;;;;;8.98;3.97;;;;;;;18.75;56.52;98888.41;5032012;28;20053;-78
2022/05/22 01:30:18;;;;;;;10.45;4.82;;;;;;;18.91;56.36;98890.81;5032043;28;20025;-77
2022/05/22 01:32:46;;;;;;;12.45;4.80;;;;;;;18.83;56.85;98881.53;5030732;28;20036;-78
2022/05/22 01:35:18;;;;;;;7.85;4.65;;;;;;;18.66;57.77;98883.13;5013982;28;20025;-77
2022/05/22 01:37:44;;;;;;;6.63;4.30;;;;;;;18.96;56.88;98876.22;5031732;28;20492;-77
2022/05/22 01:40:11;;;;;;;8.48;5.00;;;;;;;19.08;56.34;98870.16;5031581;28;20025;-77
2022/05/22 01:42:38;;;;;;;7.03;4.78;;;;;;;19.00;56.46;98868.56;5030998;28;20413;-77
2022/05/22 01:45:05;;;;;;;5.68;4.65;;;;;;;18.83;57.01;98875.03;5009367;28;20018;-75
2022/05/22 01:47:36;;;;;;;6.75;4.80;;;;;;;18.69;57.47;98873.81;5009236;28;20044;-77
2022/05/22 01:50:02;;;;;;;8.35;5.10;;;;;;;18.66;57.65;98875.44;5012167;28;20028;-78
2022/05/22 01:52:28;;;;;;;8.32;4.72;;;;;;;18.69;57.36;98868.16;5011876;28;20022;-77
2022/05/22 01:54:53;;;;;;;6.47;4.93;;;;;;;18.64;57.98;98871.38;5011894;28;20022;-78
2022/05/22 01:57:20;;;;;;;5.90;4.68;;;;;;;18.48;58.56;98875.44;5018145;28;20021;-77
2022/05/22 01:59:45;;;;;;;12.40;4.70;;;;;;;18.37;59.07;98869.78;5025322;28;20049;-77
2022/05/22 02:02:11;;;;;;;6.75;5.85;;;;;;;18.38;59.28;98865.72;5028383;28;20094;-77
2022/05/22 02:04:36;;;;;;;7.85;5.05;;;;;;;18.43;59.01;98867.34;5013861;28;20025;-77
2022/05/22 02:09:46;;;;;;;8.23;4.55;;;;;;;18.48;58.99;98864.09;5031602;28;20048;-78
2022/05/22 02:12:11;;;;;;;7.20;5.40;;;;;;;18.58;58.95;98876.69;5030045;28;20025;-78
2022/05/22 02:14:37;;;;;;;8.18;4.53;;;;;;;18.61;58.49;98861.69;5017622;28;20468;-77
2022/05/22 02:17:02;;;;;;;8.68;5.35;;;;;;;18.82;57.72;98873.41;5031537;28;20021;-78
2022/05/22 02:19:28;;;;;;;9.23;4.88;;;;;;;18.92;56.98;98872.59;5013770;28;20079;-77
2022/05/22 02:21:53;;;;;;;13.63;5.45;;;;;;;18.93;56.78;98868.56;5013589;28;20025;-77
2022/05/22 02:24:19;;;;;;;11.25;5.35;;;;;;;19.04;56.32;98872.22;5031398;28;20048;-78
2022/05/22 02:26:44;;;;;;;8.05;4.60;;;;;;;19.12;56.11;98863.66;5013303;28;20495;-76
2022/05/22 02:29:10;;;;;;;6.35;4.10;;;;;;;19.20;55.98;98868.94;5031115;28;20025;-77
2022/05/22 02:31:36;;;;;;;6.70;4.57;;;;;;;19.27;55.24;98855.94;5031084;28;20082;-77
2022/05/22 02:34:02;;;;;;;13.63;5.32;;;;;;;19.44;54.85;98862.78;5013638;28;20040;-78
2022/05/22 02:36:28;;;;;;;5.18;4.68;;;;;;;19.50;54.82;98870.47;5031318;28;20024;-78
2022/05/22 02:38:53;;;;;;;9.40;5.13;;;;;;;19.54;54.79;98872.47;5031023;28;20017;-78
2022/05/22 02:41:20;;;;;;;6.72;4.93;;;;;;;19.55;54.68;98866.38;5030282;28;20381;-77
2022/05/22 02:43:46;;;;;;;9.85;5.10;;;;;;;19.66;54.50;98874.84;5023644;28;20021;-77
2022/05/22 02:46:14;;;;;;;6.68;4.15;;;;;;;19.71;54.43;98877.28;5013372;28;20391;-77
2022/05/22 02:48:40;;;;;;;9.80;4.13;;;;;;;19.85;53.85;98881.25;5030193;28;20037;-78
2022/05/22 02:51:06;;;;;;;14.63;5.45;;;;;;;19.87;53.84;98884.47;5010549;28;20025;-77
2022/05/22 02:53:33;;;;;;;11.63;5.45;;;;;;;19.86;54.08;98872.34;5018794;28;20082;-79
2022/05/22 02:56:18;;;;;;;8.68;5.45;;;;;;;19.94;53.97;98875.97;5016512;28;20056;-74
2022/05/22 02:58:43;;;;;;;22.80;6.28;;;;;;;19.96;54.22;98884.06;5017068;28;20017;-74
2022/05/22 03:01:09;;;;;;;7.32;5.00;;;;;;;19.98;54.43;98876.75;5033294;28;20101;-74
2022/05/22 03:03:35;;;;;;;12.10;5.22;;;;;;;20.01;54.34;98881.59;5034720;28;20018;-74
2022/05/22 03:08:45;;;;;;;12.10;5.22;;;;;;;20.15;54.19;98891.25;5034780;28;20041;-77
2022/05/22 03:11:11;;;;;;;10.00;5.55;;;;;;;20.16;53.83;98887.22;5034662;28;20017;-74
2022/05/22 03:13:37;;;;;;;5.43;4.88;;;;;;;20.11;54.26;98896.16;5027237;28;20029;-74
2022/05/22 03:16:03;;;;;;;10.85;4.90;;;;;;;20.05;54.51;98881.59;5032917;28;20506;-74
2022/05/22 03:18:28;;;;;;;9.10;5.32;;;;;;;20.03;54.63;98893.38;5033307;28;20022;-73
2022/05/22 03:20:54;;;;;;;5.88;5.20;;;;;;;19.91;55.15;98896.66;5034078;28;20067;-73
2022/05/22 03:23:19;;;;;;;5.53;4.88;;;;;;;19.85;55.47;98901.13;5027645;28;20112;-73
2022/05/22 03:25:48;;;;;;;7.20;5.15;;;;;;;19.78;55.80;98899.13;5014499;28;20054;-75
2022/05/22 03:28:15;;;;;;;8.27;4.90;;;;;;;19.80;55.91;98902.34;5016377;28;20030;-73
2022/05/22 03:30:41;;;;;;;10.65;5.25;;;;;;;19.73;56.36;98908.03;5014882;28;20112;-74
2022/05/22 03:33:06;;;;;;;6.60;5.45;;;;;;;19.75;56.33;98906.44;5023662;28;20036;-73
2022/05/22 03:35:32;;;;;;;6.60;5.07;;;;;;;19.73;56.46;98908.03;5018263;28;20040;-73
2022/05/22 03:37:58;;;;;;;8.85;4.75;;;;;;;19.77;56.11;98906.81;5013653;28;20417;-73
2022/05/22 03:40:23;;;;;;;9.88;5.25;;;;;;;19.78;55.81;98899.91;5014094;28;20029;-73
2022/05/22 03:42:49;;;;;;;15.88;5.65;;;;;;;19.86;55.57;98905.56;5012746;28;20057;-73
2022/05/22 03:45:14;;;;;;;11.13;5.50;;;;;;;19.94;55.13;98904.34;5019641;28;20025;-73
2022/05/22 03:47:40;;;;;;;7.57;5.75;;;;;;;20.00;54.99;98910.41;5033456;28;20029;-73
2022/05/22 03:50:10;;;;;;;6.15;4.72;;;;;;;20.12;54.54;98914.78;5033442;28;20049;-73
2022/05/22 03:52:39;;;;;;;8.32;5.38;;;;;;;20.16;54.34;98907.88;5033558;28;20128;-74
2022/05/22 03:55:07;;;;;;;7.95;5.00;;;;;;;20.20;54.14;98911.50;5030558;28;20026;-73
2022/05/22 03:57:33;;;;;;;7.40;4.90;;;;;;;20.20;54.07;98900.13;5033144;28;20484;-73
2022/05/22 04:00:03;;;;;;;8.02;4.28;;;;;;;20.25;53.92;98904.56;5032278;28;20107;-71
2022/05/22 04:02:28;;;;;;;7.50;4.90;;;;;;;20.36;53.38;98909.38;5013411;28;20491;-71
2022/05/22 04:04:54;;;;;;;6.07;4.30;;;;;;;20.36;53.41;98906.53;5013526;28;20054;-71
2022/05/22 04:07:20;;;;;;;9.10;5.03;;;;;;;20.46;52.78;98914.19;4996079;28;20037;-71
2022/05/22 04:09:46;;;;;;;8.70;5.05;;;;;;;20.46;52.85;98911.34;5028311;28;20101;-75
2022/05/22 04:12:13;;;;;;;8.07;4.72;;;;;;;20.39;53.23;98923.56;5013464;28;20108;-74
2022/05/22 04:14:39;;;;;;;9.05;4.72;;;;;;;20.32;53.45;98917.91;5021875;28;20028;-74
2022/05/22 04:17:05;;;;;;;7.28;4.55;;;;;;;20.33;53.49;98909.00;5033299;28;20545;-74
2022/05/22 04:19:31;;;;;;;7.50;4.75;;;;;;;20.42;53.50;98921.94;5015381;28;20528;-74
2022/05/22 04:21:57;;;;;;;10.70;4.75;;;;;;;20.41;53.48;98918.28;5032937;28;20104;-74
2022/05/22 04:27:07;;;;;;;8.82;4.53;;;;;;;20.53;52.92;98925.50;5032072;28;20056;-74
2022/05/22 04:29:35;;;;;;;11.43;3.92;;;;;;;20.47;53.36;98916.63;5030202;28;20076;-74
2022/05/22 04:32:00;;;;;;;6.88;5.78;;;;;;;20.46;53.67;98917.03;5026282;28;20029;-74
2022/05/22 04:34:27;;;;;;;11.57;4.70;;;;;;;20.52;52.30;98918.22;5031854;28;20031;-74
2022/05/22 04:36:52;;;;;;;9.50;4.47;;;;;;;20.55;52.70;98922.22;5031902;28;20032;-74
2022/05/22 04:39:18;;;;;;;9.82;4.13;;;;;;;20.58;52.22;98929.94;5031683;28;20025;-74
2022/05/22 04:41:44;;;;;;;6.47;4.28;;;;;;;20.67;51.42;98920.94;5015179;28;20495;-74
2022/05/22 04:44:09;;;;;;;5.70;4.28;;;;;;;20.67;50.99;98921.72;5020576;28;20021;-74
2022/05/22 04:46:35;;;;;;;8.38;4.30;;;;;;;20.73;50.40;98922.09;5012814;28;20088;-74
2022/05/22 04:49:01;;;;;;;5.18;4.68;;;;;;;20.77;49.98;98931.41;5011773;28;20025;-75
2022/05/22 04:51:26;;;;;;;17.30;4.85;;;;;;;20.82;49.56;98931.00;5030312;28;20021;-73
2022/05/22 04:53:52;;;;;;;5.90;3.55;;;;;;;20.89;49.32;98927.28;5032275;28;20063;-71
2022/05/22 04:56:18;;;;;;;10.88;4.85;;;;;;;20.98;48.35;98936.16;5031067;28;20079;-72
2022/05/22 04:58:45;;;;;;;52.83;7.75;;;;;;;21.10;47.47;98934.81;5012598;28;20528;-76
2022/05/22 05:01:11;;;;;;;112.95;10.93;;;;;;;21.12;46.64;98932.38;5026329;28;20215;-76
2022/05/22 05:03:36;;;;;;;30.48;4.65;;;;;;;21.25;46.77;98934.69;5026011;28;20025;-75
2022/05/22 05:06:03;;;;;;;9.25;4.25;;;;;;;21.25;46.72;98937.53;5031133;28;20050;-75
2022/05/22 05:08:30;;;;;;;11.93;5.68;;;;;;;21.27;47.20;98937.91;5030411;28;20497;-77
2022/05/22 05:10:56;;;;;;;11.05;4.45;;;;;;;21.28;47.32;98931.00;5031255;28;20025;-78
2022/05/22 05:13:23;;;;;;;5.70;4.60;;;;;;;21.35;46.78;98936.59;5012883;28;20539;-79
2022/05/22 05:16:06;;;;;;;9.93;3.90;;;;;;;21.36;46.35;98937.41;5017137;28;20030;-78
2022/05/22 05:18:32;;;;;;;3.70;3.40;;;;;;;21.57;44.74;98931.50;5022690;28;20480;-79
2022/05/22 05:21:01;;;;;;;6.93;3.85;;;;;;;21.67;44.91;98935.47;5031378;28;20110;-76
2022/05/22 05:23:26;;;;;;;6.57;3.40;;;;;;;21.72;44.40;98929.34;5016753;28;20061;-76
2022/05/22 05:25:52;;;;;;;12.20;4.35;;;;;;;21.94;43.34;98920.50;5013328;28;20070;-75
2022/05/22 05:28:17;;;;;;;14.98;4.32;;;;;;;22.26;42.52;98916.44;5010385;28;20124;-74
2022/05/22 05:30:43;;;;;;;7.85;3.50;;;;;;;22.70;41.92;98927.22;5017177;28;20030;-75
2022/05/22 05:33:09;;;;;;;7.20;3.20;;;;;;;22.66;40.75;98912.19;5027148;28;20052;-75
2022/05/22 05:35:35;;;;;;;8.52;3.60;;;;;;;22.56;40.89;98911.13;5029323;28;20025;-75
2022/05/22 05:38:01;;;;;;;8.68;3.53;;;;;;;22.52;41.25;98914.03;5032146;28;20029;-76
2022/05/22 05:40:27;;;;;;;7.35;3.33;;;;;;;22.69;41.66;98909.28;5018578;28;20051;-73
2022/05/22 05:42:53;;;;;;;34.60;3.65;;;;;;;23.03;40.28;98912.41;5026473;28;20040;-73
2022/05/22 05:45:20;;;;;;;5.22;3.42;;;;;;;23.28;40.22;98906.28;5031661;28;20104;-73
2022/05/22 05:47:47;;;;;;;14.32;4.00;;;;;;;23.47;38.69;98909.59;5031824;28;20029;-75
2022/05/22 05:50:14;;;;;;;10.50;3.25;;;;;;;23.73;38.54;98907.06;5016822;28;20472;-76
2022/05/22 05:52:40;;;;;;;7.28;2.65;;;;;;;23.84;37.86;98911.31;5016714;28;20416;-76
2022/05/22 05:55:06;;;;;;;33.47;4.68;;;;;;;24.03;37.87;98910.94;5023537;28;20057;-75
2022/05/22 05:57:32;;;;;;;5.50;2.90;;;;;;;24.03;37.51;98919.50;5031630;28;20464;-74
2022/05/22 05:59:57;;;;;;;9.45;3.30;;;;;;;24.08;38.27;98927.56;5031644;28;20033;-74
2022/05/22 06:02:24;;;;;;;10.60;3.45;;;;;;;23.86;39.49;98910.84;5033881;28;20033;-74
2022/05/22 06:04:50;;;;;;;4.47;3.58;;;;;;;23.92;40.33;98914.00;5012044;28;20044;-74
2022/05/22 06:07:16;;;;;;;9.07;3.60;;;;;;;23.81;41.14;98914.25;5031405;28;20030;-74
2022/05/22 06:09:42;;;;;;;11.90;3.70;;;;;;;23.92;41.08;98914.00;5013854;28;20059;-74
2022/05/22 06:12:08;;;;;;;6.85;2.95;;;;;;;24.01;39.24;98908.50;5031538;28;20453;-74
2022/05/22 06:14:33;;;;;;;9.23;3.35;;;;;;;24.24;36.68;98910.47;5026020;28;20029;-77
2022/05/22 06:16:59;;;;;;;3.53;2.47;;;;;;;24.34;35.65;98907.81;5019765;28;20018;-75
2022/05/22 06:22:09;;;;;;;7.95;2.88;;;;;;;24.49;35.12;98922.56;5029341;28;20072;-77
2022/05/22 06:24:36;;;;;;;10.90;2.97;;;;;;;24.66;34.85;98903.41;5035531;28;20476;-83
2022/05/22 06:27:02;;;;;;;16.67;2.60;;;;;;;24.63;36.18;98904.28;5035237;28;20049;-75
2022/05/22 06:29:27;;;;;;;3.28;2.63;;;;;;;24.42;35.92;98908.44;5035375;28;20024;-74
2022/05/22 06:31:53;;;;;;;4.75;2.40;;;;;;;24.24;36.58;98909.66;5023350;28;20474;-73
2022/05/22 06:34:22;;;;;;;3.47;2.53;;;;;;;23.89;36.68;98907.13;5022431;28;20030;-76
2022/05/22 06:36:48;;;;;;;3.35;2.40;;;;;;;23.65;37.04;98904.38;5026005;28;20026;-75
2022/05/22 06:41:58;;;;;;;10.57;3.53;;;;;;;23.28;37.08;98906.28;5017398;28;20168;-78
2022/05/22 06:44:23;;;;;;;10.07;2.67;;;;;;;23.26;37.59;98914.44;5020746;28;20065;-78
2022/05/22 06:46:49;;;;;;;4.25;2.35;;;;;;;23.11;38.16;98911.84;5022290;28;20476;-77
2022/05/22 06:49:14;;;;;;;8.25;2.55;;;;;;;23.09;38.14;98922.91;5017349;28;20065;-76
2022/05/22 06:51:40;;;;;;;6.72;2.67;;;;;;;23.07;38.23;98916.00;4998705;28;20100;-74
2022/05/22 06:54:05;;;;;;;4.13;2.40;;;;;;;23.09;38.09;98916.38;5023345;28;20065;-74
2022/05/22 06:56:31;;;;;;;5.82;2.20;;;;;;;23.08;37.26;98924.13;5013545;28;20030;-73
2022/05/22 06:58:56;;;;;;;8.48;2.55;;;;;;;23.10;37.10;98924.50;5031295;28;20069;-74
2022/05/22 07:01:22;;;;;;;6.13;2.33;;;;;;;23.17;38.10;98931.31;5012781;28;20124;-75
2022/05/22 07:03:48;;;;;;;3.47;2.38;;;;;;;23.14;37.57;98925.22;5029195;28;20446;-75
2022/05/22 07:06:13;;;;;;;3.50;1.90;;;;;;;23.13;37.72;98926.47;5028644;28;20044;-74
2022/05/22 07:08:39;;;;;;;11.15;2.10;;;;;;;23.16;37.01;98921.13;5012424;28;20087;-75
2022/05/22 07:13:48;;;;;;;5.32;2.10;;;;;;;23.06;37.95;98926.63;5023487;28;20048;-73
2022/05/22 07:16:14;;;;;;;9.40;2.08;;;;;;;23.07;37.97;98925.38;5008894;28;20404;-74
2022/05/22 07:18:39;;;;;;;6.03;1.92;;;;;;;23.07;37.47;98919.69;5031193;28;20033;-78
2022/05/22 07:21:05;;;;;;;17.88;2.22;;;;;;;23.18;36.97;98924.38;5012346;28;20411;-75
2022/05/22 07:23:30;;;;;;;4.05;2.33;;;;;;;23.19;37.72;98932.50;5027065;28;20038;-73
2022/05/22 07:25:56;;;;;;;11.95;2.63;;;;;;;23.23;37.92;98930.41;5015806;28;20064;-76
2022/05/22 07:28:21;;;;;;;10.35;1.85;;;;;;;23.29;37.89;98930.75;5024051;28;20032;-76
2022/05/22 07:30:47;;;;;;;10.98;2.33;;;;;;;23.32;37.61;98935.56;5004677;28;20038;-76
2022/05/22 07:33:13;;;;;;;11.27;2.42;;;;;;;23.36;37.85;98933.44;5029379;28;20111;-76
2022/05/22 07:35:38;;;;;;;3.53;2.45;;;;;;;23.45;37.82;98926.38;5032728;28;20056;-76
2022/05/22 07:38:04;;;;;;;7.47;2.63;;;;;;;23.59;37.01;98925.25;5030345;28;20377;-76
2022/05/22 07:40:30;;;;;;;4.90;2.15;;;;;;;23.85;36.84;98937.78;5026930;28;20067;-76
2022/05/22 07:42:56;;;;;;;9.43;2.38;;;;;;;24.02;35.92;98929.31;5016477;28;20021;-76
2022/05/22 07:45:21;;;;;;;5.32;2.20;;;;;;;24.13;36.19;98940.53;5009375;28;20112;-76
2022/05/22 07:47:47;;;;;;;7.72;2.63;;;;;;;24.18;36.87;98926.53;5027299;28;20026;-76
2022/05/22 07:50:18;;;;;;;16.48;2.38;;;;;;;24.20;36.12;98932.59;5023850;28;20034;-76
2022/05/22 07:52:45;;;;;;;5.53;1.90;;;;;;;24.25;36.52;98931.28;5023148;28;20088;-77
2022/05/22 07:55:14;;;;;;;8.27;3.10;;;;;;;24.33;36.42;98937.63;5019544;28;20432;-77
2022/05/22 07:57:45;;;;;;;10.63;3.03;;;;;;;24.36;35.42;98925.31;5006255;28;20026;-75
2022/05/22 08:00:11;;;;;;;;;;;;;;;24.37;36.79;98927.75;5032880;28;20033;-75
2022/05/22 08:02:37;;;;;;;3.17;1.80;;;;;;;24.36;36.25;98931.03;5027229;28;19923;-74
2022/05/22 08:05:04;;;;;;;5.05;2.08;;;;;;;24.56;36.05;98927.31;5031631;28;20526;-76
2022/05/22 08:07:30;;;;;;;11.60;2.30;;;;;;;24.95;34.33;98934.16;5028835;28;20017;-73
2022/05/22 08:09:56;;;;;;;6.07;2.15;;;;;;;25.09;34.33;98922.34;5021585;28;20056;-78
2022/05/22 08:12:21;;;;;;;4.93;1.65;;;;;;;25.43;33.75;98928.03;5016708;28;20021;-76
2022/05/22 08:14:47;;;;;;;9.07;2.00;;;;;;;25.77;29.75;98918.13;5008682;28;20131;-77
2022/05/22 08:17:15;;;;;;;5.18;1.80;;;;;;;25.71;28.88;98912.13;5023052;28;20056;-75
2022/05/22 08:19:41;;;;;;;11.20;2.00;;;;;;;25.84;28.25;98917.09;5030572;28;20017;-74
2022/05/22 08:22:07;;;;;;;5.88;1.70;;;;;;;26.06;27.74;98917.25;5017396;28;20507;-75
2022/05/22 08:24:33;;;;;;;4.40;1.75;;;;;;;26.16;28.25;98915.34;5014144;28;20127;-77
2022/05/22 08:26:58;;;;;;;11.32;2.72;;;;;;;26.04;27.38;98916.91;5020091;28;20539;-74
2022/05/22 08:29:24;;;;;;;4.10;1.60;;;;;;;26.43;27.44;98920.69;5009046;28;20029;-74
2022/05/22 08:31:49;;;;;;;2.55;1.50;;;;;;;26.46;26.61;98916.06;5031956;28;20104;-73
2022/05/22 08:34:15;;;;;;;3.03;1.70;;;;;;;26.52;27.15;98901.97;5032585;28;20542;-73
2022/05/22 08:36:41;;;;;;;3.78;1.90;;;;;;;26.43;26.74;98914.13;5031716;28;20099;-74
2022/05/22 08:39:07;;;;;;;7.63;2.85;;;;;;;26.25;27.50;98904.03;5018773;28;20033;-77
2022/05/22 08:41:40;;;;;;;6.32;2.10;;;;;;;26.06;27.03;98900.88;5015498;28;20026;-76
2022/05/22 08:44:11;;;;;;;3.97;1.75;;;;;;;25.94;26.99;98907.38;5015114;28;20044;-75
2022/05/22 08:47:09;;;;;;;4.55;1.40;;;;;;;25.95;27.82;98902.47;5016190;28;20536;-78
2022/05/22 08:49:57;;;;;;;1.70;1.40;;;;;;;25.99;28.00;98891.72;5004657;28;20034;-77
2022/05/22 08:52:46;;;;;;;3.85;1.85;;;;;;;26.21;27.86;98886.97;4995016;28;20035;-75
2022/05/22 08:58:55;;;;;;;4.35;1.60;;;;;;;26.18;28.07;98890.72;5008760;28;20081;-77
2022/05/22 09:01:06;;;;;;;9.30;1.95;;;;;;;26.63;26.54;98888.09;5018314;28;20044;-76
2022/05/22 09:03:45;;;;;;;3.08;1.90;;;;;;;26.53;27.35;98872.03;5030743;28;20026;-75
2022/05/22 09:06:12;;;;;;;8.32;2.63;;;;;;;26.26;27.97;98881.91;5012126;28;20045;-73
2022/05/22 09:08:45;;;;;;;2.13;1.55;;;;;;;26.11;28.49;98882.31;5005250;28;20030;-74
2022/05/22 09:11:50;;;;;;;4.15;2.03;;;;;;;26.19;27.59;98871.47;5018472;28;20757;-75
2022/05/22 09:14:30;;;;;;;9.38;2.10;;;;;;;26.47;26.88;98871.81;5014024;28;20120;-77
2022/05/22 09:17:15;;;;;;;21.27;2.23;;;;;;;26.80;27.10;98862.94;5016071;28;20419;-76
2022/05/22 09:19:52;;;;;;;26.35;2.65;;;;;;;26.74;26.06;98861.94;5029223;28;20025;-75
2022/05/22 09:22:23;;;;;;;8.18;2.20;;;;;;;26.64;26.31;98866.75;5008970;28;20166;-76
2022/05/22 09:25:13;;;;;;;15.02;2.42;;;;;;;26.80;26.30;98856.44;4991812;28;20164;-79
2022/05/22 09:27:44;;;;;;;5.55;1.77;;;;;;;27.03;26.37;98853.19;5008810;28;20025;-77
2022/05/22 09:30:30;;;;;;;12.35;2.15;;;;;;;27.18;25.67;98856.31;5008611;28;20049;-81
2022/05/22 09:33:02;;;;;;;9.60;2.17;;;;;;;27.67;26.77;98847.66;5009617;28;20065;-80
2022/05/22 09:36:09;;;;;;;5.63;1.70;;;;;;;27.58;25.86;98846.31;5016482;28;20033;-80
2022/05/22 09:38:40;;;;;;;10.27;1.55;;;;;;;27.09;26.47;98847.66;5021955;28;20073;-77
2022/05/22 09:41:40;;;;;;;6.25;1.38;;;;;;;27.15;26.99;98842.09;5023260;28;20032;-78
2022/05/22 09:44:20;;;;;;;3.00;2.17;;;;;;;27.44;26.70;98830.38;5019073;28;20022;-80
2022/05/22 09:47:11;;;;;;;7.05;2.08;;;;;;;27.07;27.56;98826.41;5028129;28;20132;-79
2022/05/22 09:49:48;;;;;;;5.75;2.88;;;;;;;26.81;27.51;98829.34;5022860;28;20450;-79
2022/05/22 09:52:29;;;;;;;7.07;1.88;;;;;;;26.73;27.77;98820.97;5010485;28;20088;-79
2022/05/22 09:55:13;;;;;;;2.75;1.50;;;;;;;26.47;27.98;98829.63;5012250;28;20025;-79
2022/05/22 09:58:11;;;;;;;4.03;1.90;;;;;;;26.31;27.26;98821.16;5029804;28;20362;-79
2022/05/22 10:00:48;;;;;;;5.97;1.50;;;;;;;26.24;27.98;98822.16;5011453;28;20029;-79
2022/05/22 10:03:24;;;;;;;2.78;1.60;;;;;;;26.27;28.43;98832.75;5010029;28;20029;-79
2022/05/22 10:05:52;;;;;;;9.02;1.90;;;;;;;26.18;28.49;98821.94;5018408;28;20092;-80
2022/05/22 10:08:22;;;;;;;6.93;1.85;;;;;;;26.09;28.89;98833.28;5015380;28;20126;-79
2022/05/22 10:10:57;;;;;;;2.05;1.40;;;;;;;26.10;29.32;98820.56;4993043;28;20047;-78
2022/05/22 10:13:43;;;;;;;3.47;1.77;;;;;;;26.13;28.41;98833.97;5013702;28;20464;-79
2022/05/22 10:16:21;;;;;;;2.72;1.63;;;;;;;26.16;29.39;98835.13;5021889;28;20028;-77
2022/05/22 10:18:55;;;;;;;6.78;2.30;;;;;;;26.56;29.29;98828.91;5019494;28;20060;-77
2022/05/22 10:21:24;;;;;;;4.30;1.50;;;;;;;26.76;27.76;98825.78;5010051;28;20063;-79
2022/05/22 10:24:13;;;;;;;2.63;1.77;;;;;;;26.67;29.17;98836.38;5018106;28;20039;-80
2022/05/22 10:27:05;;;;;;;7.00;1.50;;;;;;;26.43;27.53;98823.22;5017304;28;20033;-76
2022/05/22 10:29:53;;;;;;;2.10;1.70;;;;;;;26.45;29.03;98828.47;5017057;28;20052;-79
2022/05/22 10:32:33;;;;;;;4.78;1.70;;;;;;;26.52;29.44;98819.66;5014515;28;20057;-77
2022/05/22 10:35:09;;;;;;;4.13;2.15;;;;;;;26.46;28.99;98825.16;5007791;28;20520;-78
2022/05/22 10:38:08;;;;;;;5.82;1.92;;;;;;;26.40;28.84;98811.88;5033614;28;20018;-78
2022/05/22 10:43:18;;;;;;;4.10;1.70;;;;;;;26.40;29.30;98814.72;5017475;28;20411;-81
2022/05/22 10:45:43;;;;;;;9.57;1.75;;;;;;;26.57;29.43;98807.59;5027873;28;20108;-78
2022/05/22 10:48:13;;;;;;;4.03;1.88;;;;;;;26.42;28.82;98810.13;5001147;28;20022;-76
2022/05/22 10:51:05;;;;;;;4.97;1.63;;;;;;;26.60;28.89;98803.78;5019267;28;20021;-80
2022/05/22 10:53:49;;;;;;;5.70;2.78;;;;;;;26.72;28.44;98799.31;5030917;28;20034;-81
2022/05/22 10:56:16;;;;;;;6.97;2.15;;;;;;;26.87;29.17;98798.81;5023746;28;20032;-79
2022/05/22 10:58:58;;;;;;;4.93;1.60;;;;;;;26.94;28.05;98800.63;5020972;28;20157;-77
2022/05/22 11:01:27;;;;;;;6.65;1.42;;;;;;;27.03;28.17;98787.19;5012039;28;20063;-80
2022/05/22 11:04:09;;;;;;;9.32;2.00;;;;;;;27.03;27.84;98784.31;5024414;28;20746;-77
2022/05/22 11:06:37;;;;;;;4.35;2.15;;;;;;;26.89;27.23;98773.34;5014808;28;20046;-78
2022/05/22 11:09:05;;;;;;;4.90;1.70;;;;;;;27.01;27.36;98781.09;5023293;28;20507;-77
2022/05/22 11:11:37;;;;;;;3.90;1.67;;;;;;;27.15;27.41;98761.75;5030308;28;20522;-78
2022/05/22 11:14:14;;;;;;;5.22;1.70;;;;;;;27.58;28.27;98763.03;5022765;28;20038;-78
2022/05/22 11:16:41;;;;;;;1.92;1.73;;;;;;;27.38;28.29;98759.69;5025026;28;20070;-78
2022/05/22 11:19:10;;;;;;;2.13;1.73;;;;;;;27.30;28.23;98762.84;5031629;28;20076;-78
2022/05/22 11:22:08;;;;;;;7.73;5.10;;;;;;;27.23;29.03;98757.34;5016227;28;20033;-76
2022/05/22 11:24:59;;;;;;;10.95;3.90;;;;;;;26.89;27.65;98750.38;5018960;28;20042;-77
2022/05/22 11:28:00;;;;;;;4.65;2.78;;;;;;;26.90;29.60;98744.19;5008981;28;20048;-78
2022/05/22 11:30:52;;;;;;;12.98;2.40;;;;;;;27.07;28.68;98743.22;5014764;28;20029;-77
2022/05/22 11:33:40;;;;;;;10.80;4.03;;;;;;;26.97;28.35;98751.75;5022597;28;20030;-76
2022/05/22 11:36:37;;;;;;;4.50;2.78;;;;;;;26.77;28.55;98744.19;5027731;28;20046;-75
2022/05/22 11:39:22;;;;;;;6.70;2.47;;;;;;;26.72;27.92;98736.22;5027157;28;20029;-75
2022/05/22 11:42:15;;;;;;;11.20;4.40;;;;;;;26.67;28.43;98736.00;5015418;28;20057;-77
2022/05/22 11:45:11;;;;;;;9.50;4.40;;;;;;;26.73;28.27;98731.28;5028781;28;20100;-75
2022/05/22 11:48:10;;;;;;;2.45;1.30;;;;;;;26.90;27.62;98731.91;5032041;28;20098;-74
2022/05/22 11:50:49;;;;;;;6.05;2.40;;;;;;;26.74;28.19;98724.28;5033239;28;20408;-80
2022/05/22 11:53:52;;;;;;;4.35;2.10;;;;;;;26.61;28.93;98722.25;5028447;28;20111;-76
2022/05/22 11:56:20;;;;;;;5.88;2.40;;;;;;;26.72;31.16;98719.00;5025788;28;20034;-78
2022/05/22 11:58:51;;;;;;;3.33;2.60;;;;;;;26.76;30.84;98719.66;5021746;28;20032;-75
2022/05/22 12:01:32;;;;;;;5.88;2.40;;;;;;;26.73;30.07;98714.88;5014019;28;20029;-77
2022/05/22 12:04:42;;;;;;;6.28;2.38;;;;;;;26.68;31.06;98718.34;5001053;28;20110;-74
2022/05/22 12:07:19;;;;;;;13.82;4.10;;;;;;;26.67;32.56;98722.47;4964792;28;20507;-73
2022/05/22 12:10:15;;;;;;;9.35;2.80;;;;;;;26.59;32.64;98715.38;5022904;28;20375;-81
2022/05/22 12:12:52;;;;;;;7.65;2.35;;;;;;;26.54;32.86;98718.81;5023152;28;20436;-75
2022/05/22 12:15:49;;;;;;;5.30;2.30;;;;;;;26.48;32.81;98715.75;5025060;28;20571;-75